sensor_id;sensor_type;location;lat;lon;timestamp;temperature;humidity
36818;DHT22;22761;51.542;16.450;2022-10-12T00:01:41;4.89;82.16
36818;DHT22;22761;51.542;16.450;2022-10-12T00:04:08;4.87;82.22
36818;DHT22;22761;51.542;16.450;2022-10-12T00:06:35;4.87;82.15
36818;DHT22;22761;51.542;16.450;2022-10-12T00:09:02;4.84;81.95
36818;DHT22;22761;51.542;16.450;2022-10-12T00:11:29;4.83;81.93
36818;DHT22;22761;51.542;16.450;2022-10-12T00:13:58;4.80;81.82
36818;DHT22;22761;51.542;16.450;2022-10-12T00:16:26;4.77;81.77
36818;DHT22;22761;51.542;16.450;2022-10-12T00:18:58;4.77;81.94
36818;DHT22;22761;51.542;16.450;2022-10-12T00:21:27;4.75;82.01
36818;DHT22;22761;51.542;16.450;2022-10-12T00:23:59;4.73;81.95
36818;DHT22;22761;51.542;16.450;2022-10-12T00:26:28;4.72;81.84
36818;DHT22;22761;51.542;16.450;2022-10-12T00:29:00;4.71;81.80
36818;DHT22;22761;51.542;16.450;2022-10-12T00:31:29;4.64;81.72
36818;DHT22;22761;51.542;16.450;2022-10-12T00:33:59;4.65;81.68
36818;DHT22;22761;51.542;16.450;2022-10-12T00:36:30;4.62;81.84
36818;DHT22;22761;51.542;16.450;2022-10-12T00:38:59;4.62;81.81
36818;DHT22;22761;51.542;16.450;2022-10-12T00:41:31;4.58;81.81
36818;DHT22;22761;51.542;16.450;2022-10-12T00:43:58;4.55;81.97
36818;DHT22;22761;51.542;16.450;2022-10-12T00:46:41;4.51;81.97
36818;DHT22;22761;51.542;16.450;2022-10-12T00:49:19;4.47;81.97
36818;DHT22;22761;51.542;16.450;2022-10-12T00:51:57;4.39;81.94
36818;DHT22;22761;51.542;16.450;2022-10-12T00:54:26;4.38;82.17
36818;DHT22;22761;51.542;16.450;2022-10-12T00:56:55;4.32;82.46
36818;DHT22;22761;51.542;16.450;2022-10-12T00:59:35;4.35;82.64
36818;DHT22;22761;51.542;16.450;2022-10-12T01:02:02;4.31;82.64
36818;DHT22;22761;51.542;16.450;2022-10-12T01:04:31;4.27;82.46
36818;DHT22;22761;51.542;16.450;2022-10-12T01:06:59;4.41;83.65
36818;DHT22;22761;51.542;16.450;2022-10-12T01:09:27;4.73;84.23
36818;DHT22;22761;51.542;16.450;2022-10-12T01:11:56;4.97;83.61
36818;DHT22;22761;51.542;16.450;2022-10-12T01:14:24;4.87;81.80
36818;DHT22;22761;51.542;16.450;2022-10-12T01:31:29;5.67;81.60
36818;DHT22;22761;51.542;16.450;2022-10-12T01:34:15;5.86;80.64
36818;DHT22;22761;51.542;16.450;2022-10-12T01:37:00;5.98;79.82
36818;DHT22;22761;51.542;16.450;2022-10-12T01:39:24;6.07;81.66
36818;DHT22;22761;51.542;16.450;2022-10-12T01:41:59;6.15;79.61
36818;DHT22;22761;51.542;16.450;2022-10-12T01:44:26;6.29;78.26
36818;DHT22;22761;51.542;16.450;2022-10-12T01:46:55;6.35;77.20
36818;DHT22;22761;51.542;16.450;2022-10-12T01:49:28;6.40;76.44
36818;DHT22;22761;51.542;16.450;2022-10-12T01:52:09;6.43;75.94
36818;DHT22;22761;51.542;16.450;2022-10-12T01:57:39;6.49;75.35
36818;DHT22;22761;51.542;16.450;2022-10-12T02:00:13;6.53;75.14
36818;DHT22;22761;51.542;16.450;2022-10-12T02:03:09;6.59;75.07
36818;DHT22;22761;51.542;16.450;2022-10-12T02:08:34;6.67;75.07
36818;DHT22;22761;51.542;16.450;2022-10-12T02:11:15;6.72;74.66
36818;DHT22;22761;51.542;16.450;2022-10-12T02:13:57;6.74;74.30
36818;DHT22;22761;51.542;16.450;2022-10-12T02:16:28;6.74;73.91
36818;DHT22;22761;51.542;16.450;2022-10-12T02:18:58;6.76;73.47
36818;DHT22;22761;51.542;16.450;2022-10-12T02:21:31;6.55;72.40
36818;DHT22;22761;51.542;16.450;2022-10-12T02:24:03;6.19;72.55
36818;DHT22;22761;51.542;16.450;2022-10-12T02:26:32;6.17;73.46
36818;DHT22;22761;51.542;16.450;2022-10-12T02:29:00;6.08;73.21
36818;DHT22;22761;51.542;16.450;2022-10-12T02:31:44;5.76;72.89
36818;DHT22;22761;51.542;16.450;2022-10-12T02:34:15;5.46;73.19
36818;DHT22;22761;51.542;16.450;2022-10-12T02:36:55;5.34;74.48
36818;DHT22;22761;51.542;16.450;2022-10-12T02:39:35;5.48;75.00
36818;DHT22;22761;51.542;16.450;2022-10-12T02:42:05;5.27;74.04
36818;DHT22;22761;51.542;16.450;2022-10-12T02:44:34;4.97;73.96
36818;DHT22;22761;51.542;16.450;2022-10-12T02:47:03;4.75;74.16
36818;DHT22;22761;51.542;16.450;2022-10-12T02:49:32;4.55;74.59
36818;DHT22;22761;51.542;16.450;2022-10-12T02:52:03;4.38;74.99
36818;DHT22;22761;51.542;16.450;2022-10-12T02:54:31;4.18;75.51
36818;DHT22;22761;51.542;16.450;2022-10-12T02:56:58;4.04;76.15
36818;DHT22;22761;51.542;16.450;2022-10-12T02:59:25;3.92;76.40
36818;DHT22;22761;51.542;16.450;2022-10-12T03:01:52;3.83;76.90
36818;DHT22;22761;51.542;16.450;2022-10-12T03:04:19;3.74;77.54
36818;DHT22;22761;51.542;16.450;2022-10-12T03:06:46;3.68;78.04
36818;DHT22;22761;51.542;16.450;2022-10-12T03:09:14;3.61;78.54
36818;DHT22;22761;51.542;16.450;2022-10-12T03:11:41;3.58;78.89
36818;DHT22;22761;51.542;16.450;2022-10-12T03:14:12;3.54;78.88
36818;DHT22;22761;51.542;16.450;2022-10-12T03:16:42;3.47;79.09
36818;DHT22;22761;51.542;16.450;2022-10-12T03:19:09;3.40;79.32
36818;DHT22;22761;51.542;16.450;2022-10-12T03:21:36;3.38;79.65
36818;DHT22;22761;51.542;16.450;2022-10-12T03:24:04;3.36;79.92
36818;DHT22;22761;51.542;16.450;2022-10-12T03:26:32;3.34;80.30
36818;DHT22;22761;51.542;16.450;2022-10-12T03:28:59;3.34;80.87
36818;DHT22;22761;51.542;16.450;2022-10-12T03:31:26;3.44;81.39
36818;DHT22;22761;51.542;16.450;2022-10-12T03:33:53;3.51;81.61
36818;DHT22;22761;51.542;16.450;2022-10-12T03:36:20;3.58;81.52
36818;DHT22;22761;51.542;16.450;2022-10-12T03:38:48;3.61;81.37
36818;DHT22;22761;51.542;16.450;2022-10-12T03:41:15;3.66;81.20
36818;DHT22;22761;51.542;16.450;2022-10-12T03:43:43;3.71;81.03
36818;DHT22;22761;51.542;16.450;2022-10-12T03:46:10;3.72;80.79
36818;DHT22;22761;51.542;16.450;2022-10-12T03:48:38;3.75;80.87
36818;DHT22;22761;51.542;16.450;2022-10-12T03:51:05;3.76;80.95
36818;DHT22;22761;51.542;16.450;2022-10-12T03:53:32;3.75;80.79
36818;DHT22;22761;51.542;16.450;2022-10-12T03:55:59;3.76;80.77
36818;DHT22;22761;51.542;16.450;2022-10-12T03:58:26;3.76;80.54
36818;DHT22;22761;51.542;16.450;2022-10-12T04:00:54;3.78;80.46
36818;DHT22;22761;51.542;16.450;2022-10-12T04:03:21;3.76;80.41
36818;DHT22;22761;51.542;16.450;2022-10-12T04:05:55;3.76;80.21
36818;DHT22;22761;51.542;16.450;2022-10-12T04:08:24;3.76;80.25
36818;DHT22;22761;51.542;16.450;2022-10-12T04:10:52;3.76;80.57
36818;DHT22;22761;51.542;16.450;2022-10-12T04:13:19;3.76;80.65
36818;DHT22;22761;51.542;16.450;2022-10-12T04:15:46;3.79;80.63
36818;DHT22;22761;51.542;16.450;2022-10-12T04:18:14;3.82;80.50
36818;DHT22;22761;51.542;16.450;2022-10-12T04:20:41;3.78;80.48
36818;DHT22;22761;51.542;16.450;2022-10-12T04:23:08;3.78;80.30
36818;DHT22;22761;51.542;16.450;2022-10-12T04:25:35;3.79;79.92
36818;DHT22;22761;51.542;16.450;2022-10-12T04:28:02;3.72;79.57
36818;DHT22;22761;51.542;16.450;2022-10-12T04:30:29;3.69;79.40
36818;DHT22;22761;51.542;16.450;2022-10-12T04:32:58;3.66;79.44
36818;DHT22;22761;51.542;16.450;2022-10-12T04:35:25;3.65;79.37
36818;DHT22;22761;51.542;16.450;2022-10-12T04:37:52;3.65;79.40
36818;DHT22;22761;51.542;16.450;2022-10-12T04:40:19;3.64;79.40
36818;DHT22;22761;51.542;16.450;2022-10-12T04:42:46;3.61;79.41
36818;DHT22;22761;51.542;16.450;2022-10-12T04:45:14;3.59;79.50
36818;DHT22;22761;51.542;16.450;2022-10-12T04:47:41;3.59;79.55
36818;DHT22;22761;51.542;16.450;2022-10-12T04:50:08;3.58;79.47
36818;DHT22;22761;51.542;16.450;2022-10-12T04:52:36;3.55;79.43
36818;DHT22;22761;51.542;16.450;2022-10-12T04:55:04;3.55;79.35
36818;DHT22;22761;51.542;16.450;2022-10-12T04:57:32;3.51;79.47
36818;DHT22;22761;51.542;16.450;2022-10-12T04:59:59;3.53;79.64
36818;DHT22;22761;51.542;16.450;2022-10-12T05:02:26;3.57;79.73
36818;DHT22;22761;51.542;16.450;2022-10-12T05:04:53;3.55;79.62
36818;DHT22;22761;51.542;16.450;2022-10-12T05:07:20;3.53;79.48
36818;DHT22;22761;51.542;16.450;2022-10-12T05:09:47;3.54;79.52
36818;DHT22;22761;51.542;16.450;2022-10-12T05:12:14;3.54;79.47
36818;DHT22;22761;51.542;16.450;2022-10-12T05:14:42;3.53;79.51
36818;DHT22;22761;51.542;16.450;2022-10-12T05:17:10;3.55;79.59
36818;DHT22;22761;51.542;16.450;2022-10-12T05:19:37;3.54;79.44
36818;DHT22;22761;51.542;16.450;2022-10-12T05:22:04;3.51;79.28
36818;DHT22;22761;51.542;16.450;2022-10-12T05:24:31;3.51;79.40
36818;DHT22;22761;51.542;16.450;2022-10-12T05:26:58;3.50;79.49
36818;DHT22;22761;51.542;16.450;2022-10-12T05:29:25;3.48;79.47
36818;DHT22;22761;51.542;16.450;2022-10-12T05:31:52;3.48;79.42
36818;DHT22;22761;51.542;16.450;2022-10-12T05:34:19;3.48;79.38
36818;DHT22;22761;51.542;16.450;2022-10-12T05:36:47;3.50;79.57
36818;DHT22;22761;51.542;16.450;2022-10-12T05:39:14;3.50;79.72
36818;DHT22;22761;51.542;16.450;2022-10-12T05:41:42;3.53;79.89
36818;DHT22;22761;51.542;16.450;2022-10-12T05:44:09;3.57;80.16
36818;DHT22;22761;51.542;16.450;2022-10-12T05:46:36;3.58;80.19
36818;DHT22;22761;51.542;16.450;2022-10-12T05:49:03;3.59;80.31
36818;DHT22;22761;51.542;16.450;2022-10-12T05:51:31;3.66;80.58
36818;DHT22;22761;51.542;16.450;2022-10-12T05:53:57;3.72;80.86
36818;DHT22;22761;51.542;16.450;2022-10-12T05:56:24;3.75;81.43
36818;DHT22;22761;51.542;16.450;2022-10-12T05:58:51;3.83;81.54
36818;DHT22;22761;51.542;16.450;2022-10-12T06:01:18;3.90;81.81
36818;DHT22;22761;51.542;16.450;2022-10-12T06:03:45;3.99;82.01
36818;DHT22;22761;51.542;16.450;2022-10-12T06:06:12;4.09;82.08
36818;DHT22;22761;51.542;16.450;2022-10-12T06:08:39;4.17;81.98
36818;DHT22;22761;51.542;16.450;2022-10-12T06:11:06;4.25;82.15
36818;DHT22;22761;51.542;16.450;2022-10-12T06:13:33;4.31;82.04
36818;DHT22;22761;51.542;16.450;2022-10-12T06:16:00;4.38;81.72
36818;DHT22;22761;51.542;16.450;2022-10-12T06:18:27;4.44;81.49
36818;DHT22;22761;51.542;16.450;2022-10-12T06:20:54;4.47;81.51
36818;DHT22;22761;51.542;16.450;2022-10-12T06:23:22;4.51;81.59
36818;DHT22;22761;51.542;16.450;2022-10-12T06:25:51;4.55;81.79
36818;DHT22;22761;51.542;16.450;2022-10-12T06:28:19;4.65;82.02
36818;DHT22;22761;51.542;16.450;2022-10-12T06:30:52;4.72;81.91
36818;DHT22;22761;51.542;16.450;2022-10-12T06:33:20;4.80;82.28
36818;DHT22;22761;51.542;16.450;2022-10-12T06:35:47;4.89;82.45
36818;DHT22;22761;51.542;16.450;2022-10-12T06:38:15;4.97;82.52
36818;DHT22;22761;51.542;16.450;2022-10-12T06:40:42;5.06;82.69
36818;DHT22;22761;51.542;16.450;2022-10-12T06:43:10;5.14;82.69
36818;DHT22;22761;51.542;16.450;2022-10-12T06:45:37;5.22;82.57
36818;DHT22;22761;51.542;16.450;2022-10-12T06:48:07;5.29;82.68
36818;DHT22;22761;51.542;16.450;2022-10-12T06:50:34;5.38;82.92
36818;DHT22;22761;51.542;16.450;2022-10-12T06:53:01;5.45;83.42
36818;DHT22;22761;51.542;16.450;2022-10-12T06:55:28;5.56;83.54
36818;DHT22;22761;51.542;16.450;2022-10-12T06:57:55;5.66;83.81
36818;DHT22;22761;51.542;16.450;2022-10-12T07:00:22;5.77;83.49
36818;DHT22;22761;51.542;16.450;2022-10-12T07:02:51;5.89;83.43
36818;DHT22;22761;51.542;16.450;2022-10-12T07:05:18;5.98;83.66
36818;DHT22;22761;51.542;16.450;2022-10-12T07:07:46;6.10;83.89
36818;DHT22;22761;51.542;16.450;2022-10-12T07:10:13;6.21;84.18
36818;DHT22;22761;51.542;16.450;2022-10-12T07:12:41;6.35;84.15
36818;DHT22;22761;51.542;16.450;2022-10-12T07:15:09;6.47;84.24
36818;DHT22;22761;51.542;16.450;2022-10-12T07:17:36;6.60;84.64
36818;DHT22;22761;51.542;16.450;2022-10-12T07:20:04;6.72;84.60
36818;DHT22;22761;51.542;16.450;2022-10-12T07:22:31;6.81;84.54
36818;DHT22;22761;51.542;16.450;2022-10-12T07:24:58;6.94;84.72
36818;DHT22;22761;51.542;16.450;2022-10-12T07:27:25;7.05;84.94
36818;DHT22;22761;51.542;16.450;2022-10-12T07:29:52;7.16;85.09
36818;DHT22;22761;51.542;16.450;2022-10-12T07:32:20;7.29;84.98
36818;DHT22;22761;51.542;16.450;2022-10-12T07:34:47;7.37;85.03
36818;DHT22;22761;51.542;16.450;2022-10-12T07:37:14;7.49;84.93
36818;DHT22;22761;51.542;16.450;2022-10-12T07:39:41;7.61;85.23
36818;DHT22;22761;51.542;16.450;2022-10-12T07:42:09;7.71;85.23
36818;DHT22;22761;51.542;16.450;2022-10-12T07:44:36;7.84;85.28
36818;DHT22;22761;51.542;16.450;2022-10-12T07:47:04;7.95;85.05
36818;DHT22;22761;51.542;16.450;2022-10-12T07:49:31;8.06;85.06
36818;DHT22;22761;51.542;16.450;2022-10-12T07:51:58;8.18;84.81
36818;DHT22;22761;51.542;16.450;2022-10-12T07:54:25;8.32;84.67
36818;DHT22;22761;51.542;16.450;2022-10-12T07:56:52;8.44;84.65
36818;DHT22;22761;51.542;16.450;2022-10-12T07:59:19;8.55;84.77
36818;DHT22;22761;51.542;16.450;2022-10-12T08:01:46;8.74;84.75
36818;DHT22;22761;51.542;16.450;2022-10-12T08:04:14;8.89;84.57
36818;DHT22;22761;51.542;16.450;2022-10-12T08:06:42;9.08;84.13
36818;DHT22;22761;51.542;16.450;2022-10-12T08:09:10;9.25;83.96
36818;DHT22;22761;51.542;16.450;2022-10-12T08:11:39;9.38;83.56
36818;DHT22;22761;51.542;16.450;2022-10-12T08:14:14;9.55;82.98
36818;DHT22;22761;51.542;16.450;2022-10-12T08:16:44;9.75;82.81
36818;DHT22;22761;51.542;16.450;2022-10-12T08:19:12;9.96;82.20
36818;DHT22;22761;51.542;16.450;2022-10-12T08:21:39;10.16;81.50
36818;DHT22;22761;51.542;16.450;2022-10-12T08:24:10;10.34;80.99
36818;DHT22;22761;51.542;16.450;2022-10-12T08:26:38;10.55;80.67
36818;DHT22;22761;51.542;16.450;2022-10-12T08:29:06;10.72;79.45
36818;DHT22;22761;51.542;16.450;2022-10-12T08:31:34;10.92;79.50
36818;DHT22;22761;51.542;16.450;2022-10-12T08:34:02;11.14;78.06
36818;DHT22;22761;51.542;16.450;2022-10-12T08:36:29;11.31;77.70
36818;DHT22;22761;51.542;16.450;2022-10-12T08:38:57;11.51;76.96
36818;DHT22;22761;51.542;16.450;2022-10-12T08:47:13;12.06;75.72
36818;DHT22;22761;51.542;16.450;2022-10-12T08:49:41;12.24;75.02
36818;DHT22;22761;51.542;16.450;2022-10-12T08:52:39;12.37;74.35
36818;DHT22;22761;51.542;16.450;2022-10-12T08:55:14;12.55;73.58
36818;DHT22;22761;51.542;16.450;2022-10-12T08:57:35;12.75;73.81
36818;DHT22;22761;51.542;16.450;2022-10-12T09:00:04;12.89;72.83
36818;DHT22;22761;51.542;16.450;2022-10-12T09:02:57;13.02;72.12
36818;DHT22;22761;51.542;16.450;2022-10-12T09:05:34;13.14;70.96
36818;DHT22;22761;51.542;16.450;2022-10-12T09:08:30;13.27;70.46
36818;DHT22;22761;51.542;16.450;2022-10-12T09:13:59;13.55;68.40
36818;DHT22;22761;51.542;16.450;2022-10-12T09:16:24;13.66;68.34
36818;DHT22;22761;51.542;16.450;2022-10-12T09:18:55;13.82;67.98
36818;DHT22;22761;51.542;16.450;2022-10-12T09:21:26;13.89;68.50
36818;DHT22;22761;51.542;16.450;2022-10-12T09:23:56;14.01;67.55
36818;DHT22;22761;51.542;16.450;2022-10-12T09:26:36;14.14;67.83
36818;DHT22;22761;51.542;16.450;2022-10-12T09:29:28;14.27;67.09
36818;DHT22;22761;51.542;16.450;2022-10-12T09:32:46;14.47;66.11
36818;DHT22;22761;51.542;16.450;2022-10-12T09:35:11;14.62;66.35
36818;DHT22;22761;51.542;16.450;2022-10-12T09:37:39;14.79;65.24
36818;DHT22;22761;51.542;16.450;2022-10-12T09:40:26;14.95;64.39
36818;DHT22;22761;51.542;16.450;2022-10-12T09:42:55;15.18;63.62
36818;DHT22;22761;51.542;16.450;2022-10-12T09:45:24;15.37;62.84
36818;DHT22;22761;51.542;16.450;2022-10-12T09:51:00;15.67;61.33
36818;DHT22;22761;51.542;16.450;2022-10-12T09:53:45;15.93;60.29
36818;DHT22;22761;51.542;16.450;2022-10-12T09:56:11;16.12;59.69
36818;DHT22;22761;51.542;16.450;2022-10-12T09:59:03;16.31;58.62
36818;DHT22;22761;51.542;16.450;2022-10-12T10:01:33;16.49;58.89
36818;DHT22;22761;51.542;16.450;2022-10-12T10:04:11;16.70;57.95
36818;DHT22;22761;51.542;16.450;2022-10-12T10:06:42;16.84;55.56
36818;DHT22;22761;51.542;16.450;2022-10-12T10:09:33;16.97;55.88
36818;DHT22;22761;51.542;16.450;2022-10-12T10:12:23;17.14;54.69
36818;DHT22;22761;51.542;16.450;2022-10-12T10:14:54;17.35;55.01
36818;DHT22;22761;51.542;16.450;2022-10-12T10:17:28;17.53;54.15
36818;DHT22;22761;51.542;16.450;2022-10-12T10:19:58;17.71;53.62
36818;DHT22;22761;51.542;16.450;2022-10-12T10:22:27;17.85;52.33
36818;DHT22;22761;51.542;16.450;2022-10-12T10:24:58;18.05;51.36
36818;DHT22;22761;51.542;16.450;2022-10-12T10:27:37;18.26;51.46
36818;DHT22;22761;51.542;16.450;2022-10-12T10:32:48;18.66;50.54
36818;DHT22;22761;51.542;16.450;2022-10-12T10:35:19;18.90;49.43
36818;DHT22;22761;51.542;16.450;2022-10-12T10:37:50;19.16;49.50
36818;DHT22;22761;51.542;16.450;2022-10-12T10:40:25;19.33;47.74
36818;DHT22;22761;51.542;16.450;2022-10-12T10:42:56;19.53;48.92
36818;DHT22;22761;51.542;16.450;2022-10-12T10:45:28;19.72;46.32
36818;DHT22;22761;51.542;16.450;2022-10-12T10:47:56;19.80;47.80
36818;DHT22;22761;51.542;16.450;2022-10-12T10:50:40;19.89;45.58
36818;DHT22;22761;51.542;16.450;2022-10-12T10:53:26;20.02;46.08
36818;DHT22;22761;51.542;16.450;2022-10-12T10:55:58;20.25;44.61
36818;DHT22;22761;51.542;16.450;2022-10-12T10:58:37;20.43;45.47
36818;DHT22;22761;51.542;16.450;2022-10-12T11:01:31;20.71;43.79
36818;DHT22;22761;51.542;16.450;2022-10-12T11:04:10;20.95;42.18
36818;DHT22;22761;51.542;16.450;2022-10-12T11:06:40;21.10;41.84
36818;DHT22;22761;51.542;16.450;2022-10-12T11:09:27;21.17;42.87
36818;DHT22;22761;51.542;16.450;2022-10-12T11:12:07;21.34;42.51
36818;DHT22;22761;51.542;16.450;2022-10-12T11:14:47;21.46;41.57
36818;DHT22;22761;51.542;16.450;2022-10-12T11:17:40;21.64;41.05
36818;DHT22;22761;51.542;16.450;2022-10-12T11:20:32;21.86;40.78
36818;DHT22;22761;51.542;16.450;2022-10-12T11:23:09;21.94;39.61
36818;DHT22;22761;51.542;16.450;2022-10-12T11:25:45;21.77;39.55
36818;DHT22;22761;51.542;16.450;2022-10-12T11:28:14;21.75;39.94
36818;DHT22;22761;51.542;16.450;2022-10-12T11:30:46;21.82;39.69
36818;DHT22;22761;51.542;16.450;2022-10-12T11:33:21;21.99;38.74
36818;DHT22;22761;51.542;16.450;2022-10-12T11:35:51;22.09;38.80
36818;DHT22;22761;51.542;16.450;2022-10-12T11:38:32;22.15;37.89
36818;DHT22;22761;51.542;16.450;2022-10-12T11:41:07;22.27;36.71
36818;DHT22;22761;51.542;16.450;2022-10-12T11:46:32;22.31;39.14
36818;DHT22;22761;51.542;16.450;2022-10-12T11:51:46;22.02;38.77
36818;DHT22;22761;51.542;16.450;2022-10-12T11:55:22;21.71;38.79
36818;DHT22;22761;51.542;16.450;2022-10-12T11:57:10;21.44;39.53
36818;DHT22;22761;51.542;16.450;2022-10-12T11:59:48;21.20;40.04
36818;DHT22;22761;51.542;16.450;2022-10-12T12:02:39;20.96;40.13
36818;DHT22;22761;51.542;16.450;2022-10-12T12:05:13;20.98;41.19
36818;DHT22;22761;51.542;16.450;2022-10-12T12:07:52;21.06;40.94
36818;DHT22;22761;51.542;16.450;2022-10-12T12:18:28;20.72;43.16
36818;DHT22;22761;51.542;16.450;2022-10-12T12:21:04;20.78;42.33
36818;DHT22;22761;51.542;16.450;2022-10-12T12:23:39;21.06;41.21
36818;DHT22;22761;51.542;16.450;2022-10-12T12:26:16;21.33;40.50
36818;DHT22;22761;51.542;16.450;2022-10-12T12:28:50;21.51;41.43
36818;DHT22;22761;51.542;16.450;2022-10-12T12:31:26;21.54;41.33
36818;DHT22;22761;51.542;16.450;2022-10-12T12:34:13;21.26;42.07
36818;DHT22;22761;51.542;16.450;2022-10-12T12:36:46;20.78;42.25
36818;DHT22;22761;51.542;16.450;2022-10-12T12:39:31;20.36;43.38
36818;DHT22;22761;51.542;16.450;2022-10-12T12:42:05;20.02;44.29
36818;DHT22;22761;51.542;16.450;2022-10-12T12:44:40;19.91;45.93
36818;DHT22;22761;51.542;16.450;2022-10-12T12:49:53;20.25;45.38
36818;DHT22;22761;51.542;16.450;2022-10-12T12:52:26;20.37;44.94
36818;DHT22;22761;51.542;16.450;2022-10-12T12:58:36;20.75;41.96
36818;DHT22;22761;51.542;16.450;2022-10-12T13:01:45;21.06;42.32
36818;DHT22;22761;51.542;16.450;2022-10-12T13:05:00;21.26;41.65
36818;DHT22;22761;51.542;16.450;2022-10-12T13:07:57;21.54;42.56
36818;DHT22;22761;51.542;16.450;2022-10-12T13:13:47;21.57;42.29
36818;DHT22;22761;51.542;16.450;2022-10-12T13:19:12;21.79;41.07
36818;DHT22;22761;51.542;16.450;2022-10-12T13:21:43;21.69;41.87
36818;DHT22;22761;51.542;16.450;2022-10-12T13:24:43;21.60;41.09
36818;DHT22;22761;51.542;16.450;2022-10-12T13:27:40;21.07;42.49
36818;DHT22;22761;51.542;16.450;2022-10-12T13:36:03;19.58;45.62
36818;DHT22;22761;51.542;16.450;2022-10-12T13:38:32;19.16;46.15
36818;DHT22;22761;51.542;16.450;2022-10-12T13:41:12;18.95;46.86
36818;DHT22;22761;51.542;16.450;2022-10-12T13:44:03;18.80;45.68
36818;DHT22;22761;51.542;16.450;2022-10-12T13:46:48;18.74;45.52
36818;DHT22;22761;51.542;16.450;2022-10-12T13:49:27;18.81;45.13
36818;DHT22;22761;51.542;16.450;2022-10-12T13:51:58;18.95;44.92
36818;DHT22;22761;51.542;16.450;2022-10-12T13:54:34;19.08;44.63
36818;DHT22;22761;51.542;16.450;2022-10-12T13:59:48;18.85;45.00
36818;DHT22;22761;51.542;16.450;2022-10-12T14:02:28;18.97;44.40
36818;DHT22;22761;51.542;16.450;2022-10-12T14:04:58;19.25;44.29
36818;DHT22;22761;51.542;16.450;2022-10-12T14:07:32;19.49;43.99
36818;DHT22;22761;51.542;16.450;2022-10-12T14:10:08;19.67;43.31
36818;DHT22;22761;51.542;16.450;2022-10-12T14:12:36;19.81;41.85
36818;DHT22;22761;51.542;16.450;2022-10-12T14:15:05;19.98;42.41
36818;DHT22;22761;51.542;16.450;2022-10-12T14:17:32;20.04;43.24
36818;DHT22;22761;51.542;16.450;2022-10-12T14:20:34;20.15;42.58
36818;DHT22;22761;51.542;16.450;2022-10-12T14:23:12;20.25;42.06
36818;DHT22;22761;51.542;16.450;2022-10-12T14:25:53;20.32;42.60
36818;DHT22;22761;51.542;16.450;2022-10-12T14:28:31;20.36;41.78
36818;DHT22;22761;51.542;16.450;2022-10-12T14:31:01;20.42;42.04
36818;DHT22;22761;51.542;16.450;2022-10-12T14:33:29;20.46;41.25
36818;DHT22;22761;51.542;16.450;2022-10-12T14:36:24;20.46;42.08
36818;DHT22;22761;51.542;16.450;2022-10-12T14:38:52;20.42;42.17
36818;DHT22;22761;51.542;16.450;2022-10-12T14:41:42;20.34;41.66
36818;DHT22;22761;51.542;16.450;2022-10-12T14:46:59;20.27;41.71
36818;DHT22;22761;51.542;16.450;2022-10-12T14:49:44;20.17;42.34
36818;DHT22;22761;51.542;16.450;2022-10-12T14:52:29;19.97;42.80
36818;DHT22;22761;51.542;16.450;2022-10-12T14:54:57;19.77;43.90
36818;DHT22;22761;51.542;16.450;2022-10-12T14:57:28;19.57;44.06
36818;DHT22;22761;51.542;16.450;2022-10-12T14:59:56;19.36;44.95
36818;DHT22;22761;51.542;16.450;2022-10-12T15:02:31;19.16;45.48
36818;DHT22;22761;51.542;16.450;2022-10-12T15:04:59;18.99;45.98
36818;DHT22;22761;51.542;16.450;2022-10-12T15:07:30;18.80;46.40
36818;DHT22;22761;51.542;16.450;2022-10-12T15:09:58;18.62;46.60
36818;DHT22;22761;51.542;16.450;2022-10-12T15:12:26;18.40;47.90
36818;DHT22;22761;51.542;16.450;2022-10-12T15:14:57;18.18;48.67
36818;DHT22;22761;51.542;16.450;2022-10-12T15:17:25;17.92;48.88
36818;DHT22;22761;51.542;16.450;2022-10-12T15:19:52;17.67;49.98
36818;DHT22;22761;51.542;16.450;2022-10-12T15:22:25;17.37;51.11
36818;DHT22;22761;51.542;16.450;2022-10-12T15:24:53;17.09;51.56
36818;DHT22;22761;51.542;16.450;2022-10-12T15:27:21;16.81;52.68
36818;DHT22;22761;51.542;16.450;2022-10-12T15:29:48;16.56;53.61
36818;DHT22;22761;51.542;16.450;2022-10-12T15:32:17;16.32;53.57
36818;DHT22;22761;51.542;16.450;2022-10-12T15:34:44;16.10;54.82
36818;DHT22;22761;51.542;16.450;2022-10-12T15:37:11;15.83;55.62
36818;DHT22;22761;51.542;16.450;2022-10-12T15:39:39;15.60;56.29
36818;DHT22;22761;51.542;16.450;2022-10-12T15:42:08;15.38;57.02
36818;DHT22;22761;51.542;16.450;2022-10-12T15:44:39;15.14;58.12
36818;DHT22;22761;51.542;16.450;2022-10-12T15:47:08;14.93;58.62
36818;DHT22;22761;51.542;16.450;2022-10-12T15:49:36;14.69;59.21
36818;DHT22;22761;51.542;16.450;2022-10-12T15:52:07;14.48;59.63
36818;DHT22;22761;51.542;16.450;2022-10-12T15:54:35;14.21;60.54
36818;DHT22;22761;51.542;16.450;2022-10-12T15:57:05;13.97;60.95
36818;DHT22;22761;51.542;16.450;2022-10-12T15:59:32;13.73;61.52
36818;DHT22;22761;51.542;16.450;2022-10-12T16:01:59;13.51;62.08
36818;DHT22;22761;51.542;16.450;2022-10-12T16:04:26;13.28;62.86
36818;DHT22;22761;51.542;16.450;2022-10-12T16:06:53;13.06;63.40
36818;DHT22;22761;51.542;16.450;2022-10-12T16:09:21;12.86;64.07
36818;DHT22;22761;51.542;16.450;2022-10-12T16:11:49;12.65;64.51
36818;DHT22;22761;51.542;16.450;2022-10-12T16:14:16;12.49;64.93
36818;DHT22;22761;51.542;16.450;2022-10-12T16:16:44;12.28;65.90
36818;DHT22;22761;51.542;16.450;2022-10-12T16:19:11;12.08;66.30
36818;DHT22;22761;51.542;16.450;2022-10-12T16:21:38;11.89;66.90
36818;DHT22;22761;51.542;16.450;2022-10-12T16:24:05;11.72;67.25
36818;DHT22;22761;51.542;16.450;2022-10-12T16:26:33;11.57;67.68
36818;DHT22;22761;51.542;16.450;2022-10-12T16:28:59;11.41;68.17
36818;DHT22;22761;51.542;16.450;2022-10-12T16:31:27;11.24;68.33
36818;DHT22;22761;51.542;16.450;2022-10-12T16:33:54;11.10;68.81
36818;DHT22;22761;51.542;16.450;2022-10-12T16:36:21;10.92;69.29
36818;DHT22;22761;51.542;16.450;2022-10-12T16:38:48;10.78;69.47
36818;DHT22;22761;51.542;16.450;2022-10-12T16:41:16;10.64;69.56
36818;DHT22;22761;51.542;16.450;2022-10-12T16:43:44;10.49;70.27
36818;DHT22;22761;51.542;16.450;2022-10-12T16:46:11;10.37;70.64
36818;DHT22;22761;51.542;16.450;2022-10-12T16:48:38;10.21;70.76
36818;DHT22;22761;51.542;16.450;2022-10-12T16:51:11;10.12;71.02
36818;DHT22;22761;51.542;16.450;2022-10-12T16:53:39;9.99;71.55
36818;DHT22;22761;51.542;16.450;2022-10-12T16:56:08;9.90;72.06
36818;DHT22;22761;51.542;16.450;2022-10-12T16:58:35;9.79;72.10
36818;DHT22;22761;51.542;16.450;2022-10-12T17:01:10;9.69;72.36
36818;DHT22;22761;51.542;16.450;2022-10-12T17:03:39;9.58;72.79
36818;DHT22;22761;51.542;16.450;2022-10-12T17:06:07;9.51;73.24